Stations météo

réclame
Mon MeteoGroup
Matera, Italie (16314): Température de l'air & dewpoint: 11.11.2017 18:00:00 - 17.11.2017 18:00:00 (CET)Matera, Italie (16314): Vitesse du vent: 11.11.2017 18:00:00 - 17.11.2017 18:00:00 (CET)Matera, Italie (16314): Direction du vent: 11.11.2017 18:00:00 - 17.11.2017 18:00:00 (CET)Matera, Italie (16314): reduced air pressure: 11.11.2017 18:00:00 - 17.11.2017 18:00:00 (CET)Matera, Italie (16314): Quantités de précipitations: 11.11.2017 18:00:00 - 17.11.2017 18:00:00 (CET)
Date & Time tt [°C] td [°C] ff [km/h] ff [knt] dd ppp [hPa] rr [mm]
17.11.2017 18:00:00 - - - - - - -
17.11.2017 17:00:00 10,2 10,2 28 15 NE 1014,8 -
17.11.2017 16:00:00 10,4 10,4 31 17 NE 1014,2 -
17.11.2017 15:00:00 10,9 10,9 37 20 NE 1013,9 -
17.11.2017 14:00:00 11,5 11,3 31 17 NE 1013,7 -
17.11.2017 13:00:00 12,7 12,4 35 19 ENE 1013,5 -
17.11.2017 12:00:00 12,1 11,2 26 14 ENE 1014,3 -
17.11.2017 11:00:00 12,8 10,8 28 15 ENE 1014,4 -
17.11.2017 10:00:00 12,7 12,7 21 11 ENE 1014,5 -
17.11.2017 09:00:00 12,0 12,0 22 12 ENE 1014,3 -
17.11.2017 08:00:00 11,0 11,0 8 4 NE 1014,6 -
17.11.2017 07:00:00 11,0 11,0 18 10 ENE 1014,3 -
17.11.2017 06:00:00 11,1 11,1 28 15 E 1013,9 -
17.11.2017 05:00:00 11,0 11,0 22 12 E 1013,9 -
17.11.2017 04:00:00 11,0 11,0 34 18 E 1013,5 -
17.11.2017 03:00:00 10,7 10,7 34 18 ENE 1013,7 -
17.11.2017 02:00:00 9,5 9,5 18 10 NE 1014,3 -
17.11.2017 01:00:00 10,0 10,0 15 8 NE 1014,5 -
17.11.2017 00:00:00 9,8 9,8 21 11 ENE 1014,8 -
16.11.2017 23:00:00 9,8 9,8 11 6 ENE 1015,1 -
16.11.2017 22:00:00 10,1 10,1 13 7 S 1015,1 -
16.11.2017 21:00:00 10,2 9,9 26 14 SSE 1014,9 -
16.11.2017 20:00:00 10,2 10,0 16 9 SSE 1014,7 -
16.11.2017 19:00:00 10,1 10,1 26 14 SSE 1014,8 -
16.11.2017 18:00:00 10,3 10,3 26 14 SSE 1014,5 -
16.11.2017 17:00:00 10,3 10,3 22 12 SSE 1014,1 -
16.11.2017 16:00:00 10,7 10,5 24 13 S 1013,9 -
16.11.2017 15:00:00 11,7 11,7 11 6 SSW 1013,2 -
16.11.2017 14:00:00 11,1 11,1 11 6 SSE 1013,1 -
16.11.2017 13:00:00 10,3 10,3 26 14 SSE 1013,5 -
16.11.2017 12:00:00 10,3 10,0 24 13 SSE 1013,6 -
16.11.2017 11:00:00 10,4 10,2 26 14 S 1013,9 -
16.11.2017 10:00:00 10,7 9,8 34 18 SSE 1013,5 -
16.11.2017 09:00:00 10,2 10,2 21 11 SE 1013,3 -
16.11.2017 08:00:00 10,0 10,0 18 10 ESE 1013,3 -
16.11.2017 07:00:00 10,1 10,1 22 12 E 1012,7 -
16.11.2017 06:00:00 9,7 9,7 16 9 NE 1013,0 -
16.11.2017 05:00:00 9,7 9,7 16 9 ENE 1013,3 -
16.11.2017 04:00:00 9,7 9,7 21 11 E 1013,9 -
16.11.2017 03:00:00 10,1 9,6 11 6 E 1014,6 -
16.11.2017 02:00:00 9,9 9,9 11 6 ESE 1015,0 -
16.11.2017 01:00:00 10,0 9,7 15 8 E 1015,3 0,0
16.11.2017 00:00:00 10,4 9,8 11 6 E 1015,6 -
15.11.2017 23:00:00 10,3 8,9 9 5 ESE 1016,0 -
15.11.2017 22:00:00 10,3 7,7 9 5 SE 1016,0 -
15.11.2017 21:00:00 10,2 7,9 15 8 SE 1016,3 -
15.11.2017 20:00:00 10,6 8,7 11 6 S 1016,2 -
15.11.2017 19:00:00 10,6 8,8 15 8 SSE 1016,1 -
15.11.2017 18:00:00 10,9 10,1 9 5 S 1015,9 -
15.11.2017 17:00:00 11,7 10,6 13 7 S 1015,5 -
15.11.2017 16:00:00 12,4 10,1 22 12 SSW 1014,9 -
15.11.2017 15:00:00 12,4 10,1 18 10 S 1014,7 -
15.11.2017 14:00:00 13,7 9,9 24 13 SSW 1014,1 -
15.11.2017 13:00:00 13,4 9,4 31 17 SSW 1014,2 -
15.11.2017 12:00:00 13,7 9,1 37 20 SW 1014,1 -
15.11.2017 11:00:00 12,0 11,8 29 16 SSW 1014,5 -
15.11.2017 10:00:00 11,7 11,7 26 14 S 1014,1 -
15.11.2017 09:00:00 10,2 10,2 18 10 S 1013,9 -
15.11.2017 08:00:00 9,5 9,5 9 5 S 1013,8 -
15.11.2017 07:00:00 10,0 10,0 15 8 SSE 1012,5 -
15.11.2017 06:00:00 9,7 9,7 8 4 S 1011,5 -
15.11.2017 05:00:00 9,6 9,6 8 4 S 1011,1 -
15.11.2017 04:00:00 9,3 9,3 9 5 S 1010,2 -
15.11.2017 03:00:00 10,3 10,3 18 10 S 1009,7 -
15.11.2017 02:00:00 10,9 10,9 16 9 SW 1009,0 -
15.11.2017 01:00:00 11,4 11,4 28 15 SW 1008,1 -
15.11.2017 00:00:00 11,7 11,7 24 13 S 1007,7 -
14.11.2017 23:00:00 11,3 11,3 11 6 S 1008,0 -
14.11.2017 22:00:00 10,7 10,7 4 2 SSE 1008,4 -
14.11.2017 21:00:00 10,4 10,4 4 2 S 1008,4 -
14.11.2017 20:00:00 10,3 10,3 4 2 SSE 1008,1 -
14.11.2017 19:00:00 9,8 9,8 8 4 ESE 1008,6 -
14.11.2017 18:00:00 9,9 9,9 11 6 E 1008,6 -
14.11.2017 17:00:00 9,9 9,9 11 6 NE 1007,5 -
14.11.2017 16:00:00 10,2 10,2 15 8 NE 1007,4 -
14.11.2017 15:00:00 9,7 9,7 24 13 NE 1007,2 -
14.11.2017 14:00:00 9,7 9,7 21 11 NE 1007,8 -
14.11.2017 13:00:00 9,4 9,4 21 11 NE 1007,7 -
14.11.2017 12:00:00 9,6 9,6 22 12 NNE 1007,9 -
14.11.2017 11:00:00 10,6 10,4 15 8 NE 1007,9 -
14.11.2017 10:00:00 9,7 9,2 15 8 E 1007,9 -
14.11.2017 09:00:00 10,0 9,2 16 9 ENE 1007,9 -
14.11.2017 08:00:00 9,6 9,1 13 7 ENE 1007,9 -
14.11.2017 07:00:00 9,4 9,1 13 7 E 1007,1 -
14.11.2017 06:00:00 9,6 9,4 8 4 ESE 1007,3 -
14.11.2017 05:00:00 9,7 9,1 13 7 E 1006,7 -
14.11.2017 04:00:00 9,4 8,1 15 8 ESE 1006,4 -
14.11.2017 03:00:00 9,0 6,8 11 6 ESE 1006,2 -
14.11.2017 02:00:00 9,2 6,8 11 6 E 1006,4 -
14.11.2017 01:00:00 10,4 5,9 0 0 N 1005,5 0,0
14.11.2017 00:00:00 9,6 7,3 2 1 E 1005,6 -
13.11.2017 23:00:00 9,8 8,4 5 3 NE 1005,2 -
13.11.2017 22:00:00 10,0 8,7 13 7 NNE 1004,3 -
13.11.2017 21:00:00 10,6 9,7 0 0 N 1003,8 -
13.11.2017 20:00:00 11,0 10,2 8 4 NW 1002,9 -
13.11.2017 19:00:00 11,2 10,1 9 5 WNW 1002,2 -
13.11.2017 18:00:00 11,7 10,3 11 6 W 1001,5 -
13.11.2017 17:00:00 12,3 10,3 11 6 W 1001,0 -
13.11.2017 16:00:00 12,0 10,6 18 10 WNW 1000,8 -
13.11.2017 15:00:00 14,5 10,1 42 23 W 1000,6 -
13.11.2017 14:00:00 16,6 9,2 28 15 WSW 998,7 -
13.11.2017 13:00:00 16,8 10,4 22 12 SSW 999,2 0,0
13.11.2017 12:00:00 16,4 8,6 18 10 SW 1000,2 -
13.11.2017 11:00:00 16,9 7,7 39 21 WSW 1001,1 -
13.11.2017 10:00:00 16,2 8,6 24 13 WSW 1001,3 -
13.11.2017 09:00:00 15,0 9,3 22 12 W 1002,0 -
13.11.2017 08:00:00 13,6 9,6 28 15 W 1001,9 -
13.11.2017 07:00:00 12,0 9,5 13 7 WSW 1002,8 0,0
13.11.2017 06:00:00 12,6 10,5 18 10 WSW 1002,7 -
13.11.2017 05:00:00 13,1 10,8 26 14 WSW 1002,4 -
13.11.2017 04:00:00 13,6 11,1 18 10 WSW 1003,1 -
13.11.2017 03:00:00 14,2 11,0 29 16 W 1003,5 -
13.11.2017 02:00:00 13,1 11,3 28 15 WSW 1004,5 -
13.11.2017 01:00:00 13,7 11,7 26 14 WSW 1005,4 0,0
13.11.2017 00:00:00 13,1 13,0 22 12 WSW 1006,6 -
12.11.2017 23:00:00 13,0 12,9 15 8 WSW 1007,5 -
12.11.2017 22:00:00 13,9 13,8 18 10 WSW 1008,0 -
12.11.2017 21:00:00 13,7 13,6 31 17 SW 1008,3 -
12.11.2017 20:00:00 13,8 13,7 31 17 SW 1008,8 -
12.11.2017 19:00:00 13,7 13,6 28 15 SW 1009,4 0,0
12.11.2017 18:00:00 13,4 13,3 21 11 SW 1010,2 -
12.11.2017 17:00:00 13,1 13,0 24 13 SSW 1010,6 -
12.11.2017 16:00:00 13,4 13,3 22 12 SSW 1011,1 -
12.11.2017 15:00:00 14,1 12,9 18 10 SSW 1011,4 -
12.11.2017 14:00:00 15,1 13,2 18 10 SW 1011,8 -
12.11.2017 13:00:00 15,1 13,4 31 17 SW 1012,5 0,0
12.11.2017 12:00:00 13,6 13,5 21 11 SW 1013,8 -
12.11.2017 11:00:00 12,5 12,5 21 11 SW 1014,8 -
12.11.2017 10:00:00 11,8 11,8 16 9 SW 1015,4 -
12.11.2017 09:00:00 11,1 11,1 21 11 SW 1016,0 -
12.11.2017 08:00:00 10,6 10,6 9 5 WSW 1016,0 -
12.11.2017 07:00:00 10,3 10,3 11 6 WSW 1015,8 -
12.11.2017 06:00:00 9,9 9,9 13 7 WSW 1015,7 -
12.11.2017 05:00:00 9,7 9,7 18 10 WSW 1015,8 -
12.11.2017 04:00:00 9,8 9,8 15 8 WSW 1015,8 -
12.11.2017 03:00:00 9,4 9,4 15 8 W 1016,0 -
12.11.2017 02:00:00 8,7 8,7 11 6 WNW 1016,7 -
12.11.2017 01:00:00 8,6 8,6 8 4 WNW 1016,8 -
12.11.2017 00:00:00 10,3 10,3 4 2 N 1016,9 -
11.11.2017 23:00:00 9,7 9,7 0 0 N 1017,4 -
11.11.2017 22:00:00 10,1 10,1 2 1 E 1017,1 -
11.11.2017 21:00:00 10,4 10,4 8 4 E 1017,0 -
11.11.2017 20:00:00 10,6 10,6 8 4 NE 1016,8 -
11.11.2017 19:00:00 10,6 10,6 9 5 NE 1016,6 0,0
11.11.2017 18:00:00 10,9 10,6 8 4 NE 1016,4 -

tt = Température de l'air
td = dewpoint
ff = Vitesse du vent
dd = Direction du vent
ppp = reduced air pressure
rr = Quantités de précipitations

stations d'obs. à proximité